sensor_id;sensor_type;location;lat;lon;timestamp;pressure;altitude;pressure_sealevel;temperature;humidity
76337;BME280;65157;50.082;18.178;2023-04-07T00:00:24;99358.59;;;2.06;78.54
76337;BME280;65157;50.082;18.178;2023-04-07T00:03:11;99357.02;;;2.07;78.76
76337;BME280;65157;50.082;18.178;2023-04-07T00:05:37;99354.94;;;2.04;78.56
76337;BME280;65157;50.082;18.178;2023-04-07T00:08:07;99354.42;;;2.02;78.59
76337;BME280;65157;50.082;18.178;2023-04-07T00:10:38;99351.15;;;1.97;78.72
76337;BME280;65157;50.082;18.178;2023-04-07T00:13:04;99355.17;;;1.93;78.84
76337;BME280;65157;50.082;18.178;2023-04-07T00:15:31;99351.21;;;1.88;79.26
76337;BME280;65157;50.082;18.178;2023-04-07T00:17:58;99349.67;;;1.83;79.35
76337;BME280;65157;50.082;18.178;2023-04-07T00:20:26;99343.27;;;1.79;79.92
76337;BME280;65157;50.082;18.178;2023-04-07T00:22:56;99343.30;;;1.72;79.92
76337;BME280;65157;50.082;18.178;2023-04-07T00:25:23;99338.27;;;1.69;80.12
76337;BME280;65157;50.082;18.178;2023-04-07T00:27:49;99333.94;;;1.66;80.04
76337;BME280;65157;50.082;18.178;2023-04-07T00:30:16;99339.31;;;1.67;80.24
76337;BME280;65157;50.082;18.178;2023-04-07T00:32:50;99337.95;;;1.65;80.09
76337;BME280;65157;50.082;18.178;2023-04-07T00:35:17;99338.12;;;1.64;80.09
76337;BME280;65157;50.082;18.178;2023-04-07T00:37:44;99333.42;;;1.63;80.30
76337;BME280;65157;50.082;18.178;2023-04-07T00:40:18;99330.31;;;1.61;80.62
76337;BME280;65157;50.082;18.178;2023-04-07T00:42:44;99325.98;;;1.60;80.26
76337;BME280;65157;50.082;18.178;2023-04-07T00:45:11;99321.79;;;1.60;80.38
76337;BME280;65157;50.082;18.178;2023-04-07T00:47:38;99318.68;;;1.55;80.78
76337;BME280;65157;50.082;18.178;2023-04-07T00:50:06;99314.52;;;1.50;80.91
76337;BME280;65157;50.082;18.178;2023-04-07T00:52:33;99305.86;;;1.45;81.14
76337;BME280;65157;50.082;18.178;2023-04-07T00:54:59;99308.13;;;1.42;81.75
76337;BME280;65157;50.082;18.178;2023-04-07T00:57:26;99301.73;;;1.38;81.54
76337;BME280;65157;50.082;18.178;2023-04-07T00:59:53;99302.94;;;1.39;81.77
76337;BME280;65157;50.082;18.178;2023-04-07T01:02:35;99299.98;;;1.37;82.11
76337;BME280;65157;50.082;18.178;2023-04-07T01:10:18;99294.58;;;1.40;81.49
76337;BME280;65157;50.082;18.178;2023-04-07T01:15:17;99287.44;;;1.45;81.64
76337;BME280;65157;50.082;18.178;2023-04-07T01:17:54;99285.00;;;1.44;82.21
76337;BME280;65157;50.082;18.178;2023-04-07T01:20:26;99282.91;;;1.42;81.94
76337;BME280;65157;50.082;18.178;2023-04-07T01:22:57;99246.52;;;1.22;82.46
76337;BME280;65157;50.082;18.178;2023-04-07T01:28:40;99265.25;;;1.29;82.59
76337;BME280;65157;50.082;18.178;2023-04-07T01:31:11;99277.20;;;1.39;82.45
76337;BME280;65157;50.082;18.178;2023-04-07T01:33:39;99280.52;;;1.39;82.36
76337;BME280;65157;50.082;18.178;2023-04-07T01:36:10;99278.91;;;1.41;82.01
76337;BME280;65157;50.082;18.178;2023-04-07T01:38:38;99271.28;;;1.39;82.32
76337;BME280;65157;50.082;18.178;2023-04-07T01:41:05;99257.55;;;1.37;81.78
76337;BME280;65157;50.082;18.178;2023-04-07T01:43:33;99277.82;;;1.53;82.03
76337;BME280;65157;50.082;18.178;2023-04-07T01:46:04;99281.27;;;1.58;81.56
76337;BME280;65157;50.082;18.178;2023-04-07T01:48:31;99279.33;;;1.63;81.64
76337;BME280;65157;50.082;18.178;2023-04-07T01:51:03;99278.25;;;1.68;81.31
76337;BME280;65157;50.082;18.178;2023-04-07T01:53:30;99273.52;;;1.74;81.19
76337;BME280;65157;50.082;18.178;2023-04-07T01:55:58;99268.95;;;1.79;80.78
76337;BME280;65157;50.082;18.178;2023-04-07T01:58:25;99268.06;;;1.83;80.69
76337;BME280;65157;50.082;18.178;2023-04-07T02:00:51;99269.07;;;1.88;80.66
76337;BME280;65157;50.082;18.178;2023-04-07T02:03:28;99266.61;;;1.92;80.31
76337;BME280;65157;50.082;18.178;2023-04-07T02:06:01;99262.09;;;1.92;80.47
76337;BME280;65157;50.082;18.178;2023-04-07T02:08:31;99262.08;;;1.92;80.56
76337;BME280;65157;50.082;18.178;2023-04-07T02:10:59;99260.52;;;1.93;80.32
76337;BME280;65157;50.082;18.178;2023-04-07T02:13:27;99259.98;;;1.94;80.23
76337;BME280;65157;50.082;18.178;2023-04-07T02:15:55;99260.19;;;1.89;80.46
76337;BME280;65157;50.082;18.178;2023-04-07T02:18:24;99264.05;;;1.84;80.49
76337;BME280;65157;50.082;18.178;2023-04-07T02:20:52;99261.64;;;1.81;80.51
76337;BME280;65157;50.082;18.178;2023-04-07T02:23:19;99263.05;;;1.76;81.13
76337;BME280;65157;50.082;18.178;2023-04-07T02:25:46;99263.98;;;1.68;81.06
76337;BME280;65157;50.082;18.178;2023-04-07T02:28:14;99264.87;;;1.67;80.95
76337;BME280;65157;50.082;18.178;2023-04-07T02:30:41;99259.63;;;1.68;81.32
76337;BME280;65157;50.082;18.178;2023-04-07T02:33:07;99265.55;;;1.66;81.22
76337;BME280;65157;50.082;18.178;2023-04-07T02:35:34;99264.88;;;1.64;81.10
76337;BME280;65157;50.082;18.178;2023-04-07T02:38:01;99248.39;;;1.60;80.98
76337;BME280;65157;50.082;18.178;2023-04-07T02:40:27;99260.14;;;1.69;81.06
76337;BME280;65157;50.082;18.178;2023-04-07T02:42:54;99252.86;;;1.67;81.24
76337;BME280;65157;50.082;18.178;2023-04-07T02:45:21;99253.90;;;1.65;81.09
76337;BME280;65157;50.082;18.178;2023-04-07T02:47:48;99251.84;;;1.63;81.63
76337;BME280;65157;50.082;18.178;2023-04-07T02:50:21;99253.10;;;1.56;81.74
76337;BME280;65157;50.082;18.178;2023-04-07T02:52:48;99251.92;;;1.50;81.58
76337;BME280;65157;50.082;18.178;2023-04-07T02:55:15;99252.28;;;1.49;81.18
76337;BME280;65157;50.082;18.178;2023-04-07T02:57:44;99253.29;;;1.51;81.26
76337;BME280;65157;50.082;18.178;2023-04-07T03:00:13;99252.62;;;1.51;81.82
76337;BME280;65157;50.082;18.178;2023-04-07T03:02:39;99249.66;;;1.50;81.28
76337;BME280;65157;50.082;18.178;2023-04-07T03:05:06;99254.36;;;1.51;81.51
76337;BME280;65157;50.082;18.178;2023-04-07T03:07:33;99255.41;;;1.50;81.80
76337;BME280;65157;50.082;18.178;2023-04-07T03:10:02;99252.99;;;1.45;81.61
76337;BME280;65157;50.082;18.178;2023-04-07T03:12:29;99253.20;;;1.40;81.86
76337;BME280;65157;50.082;18.178;2023-04-07T03:14:56;99225.64;;;1.23;81.81
76337;BME280;65157;50.082;18.178;2023-04-07T03:17:22;99259.63;;;1.42;81.54
76337;BME280;65157;50.082;18.178;2023-04-07T03:19:49;99260.14;;;1.43;81.48
76337;BME280;65157;50.082;18.178;2023-04-07T03:22:16;99263.42;;;1.44;81.36
76337;BME280;65157;50.082;18.178;2023-04-07T03:24:43;99263.92;;;1.49;81.15
76337;BME280;65157;50.082;18.178;2023-04-07T03:27:12;99260.27;;;1.50;81.27
76337;BME280;65157;50.082;18.178;2023-04-07T03:29:39;99262.35;;;1.51;81.20
76337;BME280;65157;50.082;18.178;2023-04-07T03:32:06;99252.79;;;1.49;80.99
76337;BME280;65157;50.082;18.178;2023-04-07T03:34:33;99249.14;;;1.48;81.11
76337;BME280;65157;50.082;18.178;2023-04-07T03:37:00;99261.09;;;1.59;81.07
76337;BME280;65157;50.082;18.178;2023-04-07T03:39:26;99258.66;;;1.59;80.60
76337;BME280;65157;50.082;18.178;2023-04-07T03:41:59;99261.06;;;1.62;80.72
76337;BME280;65157;50.082;18.178;2023-04-07T03:44:26;99253.76;;;1.63;80.67
76337;BME280;65157;50.082;18.178;2023-04-07T03:46:55;99239.38;;;1.54;80.70
76337;BME280;65157;50.082;18.178;2023-04-07T03:49:22;99236.77;;;1.53;81.04
76337;BME280;65157;50.082;18.178;2023-04-07T03:51:49;99241.32;;;1.49;81.33
76337;BME280;65157;50.082;18.178;2023-04-07T03:54:15;99237.20;;;1.40;81.80
76337;BME280;65157;50.082;18.178;2023-04-07T03:56:44;99233.41;;;1.33;81.89
76337;BME280;65157;50.082;18.178;2023-04-07T03:59:10;99229.27;;;1.26;82.14
76337;BME280;65157;50.082;18.178;2023-04-07T04:01:37;99230.00;;;1.22;82.49
76337;BME280;65157;50.082;18.178;2023-04-07T04:04:07;99226.89;;;1.18;82.55
76337;BME280;65157;50.082;18.178;2023-04-07T04:06:34;99226.02;;;1.17;82.37
76337;BME280;65157;50.082;18.178;2023-04-07T04:09:00;99229.33;;;1.17;82.89
76337;BME280;65157;50.082;18.178;2023-04-07T04:11:31;99231.41;;;1.17;82.51
76337;BME280;65157;50.082;18.178;2023-04-07T04:14:06;99237.98;;;1.22;82.40
76337;BME280;65157;50.082;18.178;2023-04-07T04:16:32;99239.55;;;1.25;82.24
76337;BME280;65157;50.082;18.178;2023-04-07T04:18:59;99240.91;;;1.29;82.09
76337;BME280;65157;50.082;18.178;2023-04-07T04:21:26;99245.05;;;1.34;82.18
76337;BME280;65157;50.082;18.178;2023-04-07T04:23:55;99245.38;;;1.38;81.90
76337;BME280;65157;50.082;18.178;2023-04-07T04:26:22;99245.89;;;1.41;82.15
76337;BME280;65157;50.082;18.178;2023-04-07T04:28:48;99243.98;;;1.40;82.44
76337;BME280;65157;50.082;18.178;2023-04-07T04:31:15;99237.20;;;1.40;82.52
76337;BME280;65157;50.082;18.178;2023-04-07T04:33:42;99240.84;;;1.41;82.22
76337;BME280;65157;50.082;18.178;2023-04-07T04:36:11;99243.09;;;1.45;82.39
76337;BME280;65157;50.082;18.178;2023-04-07T04:38:38;99250.20;;;1.46;82.25
76337;BME280;65157;50.082;18.178;2023-04-07T04:41:05;99255.23;;;1.51;81.94
76337;BME280;65157;50.082;18.178;2023-04-07T04:43:31;99245.14;;;1.50;81.86
76337;BME280;65157;50.082;18.178;2023-04-07T04:46:00;99241.30;;;1.53;81.87
76337;BME280;65157;50.082;18.178;2023-04-07T04:48:27;99251.69;;;1.61;82.08
76337;BME280;65157;50.082;18.178;2023-04-07T04:50:54;99246.63;;;1.63;81.92
76337;BME280;65157;50.082;18.178;2023-04-07T04:53:20;99247.64;;;1.66;81.86
76337;BME280;65157;50.082;18.178;2023-04-07T04:55:47;99243.27;;;1.69;81.77
76337;BME280;65157;50.082;18.178;2023-04-07T04:58:14;99245.35;;;1.70;81.80
76337;BME280;65157;50.082;18.178;2023-04-07T05:00:41;99248.48;;;1.73;81.72
76337;BME280;65157;50.082;18.178;2023-04-07T05:03:07;99253.50;;;1.76;81.46
76337;BME280;65157;50.082;18.178;2023-04-07T05:05:34;99255.05;;;1.77;81.57
76337;BME280;65157;50.082;18.178;2023-04-07T05:08:01;99251.91;;;1.78;81.65
76337;BME280;65157;50.082;18.178;2023-04-07T05:10:27;99249.30;;;1.79;81.74
76337;BME280;65157;50.082;18.178;2023-04-07T05:12:54;99248.24;;;1.80;81.71
76337;BME280;65157;50.082;18.178;2023-04-07T05:15:21;99249.98;;;1.80;81.87
76337;BME280;65157;50.082;18.178;2023-04-07T05:17:47;99249.28;;;1.81;81.67
76337;BME280;65157;50.082;18.178;2023-04-07T05:20:15;99253.29;;;1.81;81.87
76337;BME280;65157;50.082;18.178;2023-04-07T05:22:41;99255.90;;;1.81;81.95
76337;BME280;65157;50.082;18.178;2023-04-07T05:25:11;99257.98;;;1.82;81.92
76337;BME280;65157;50.082;18.178;2023-04-07T05:27:38;99256.93;;;1.81;82.39
76337;BME280;65157;50.082;18.178;2023-04-07T05:30:07;99259.91;;;1.80;82.25
76337;BME280;65157;50.082;18.178;2023-04-07T05:32:34;99262.88;;;1.80;82.16
76337;BME280;65157;50.082;18.178;2023-04-07T05:35:00;99261.98;;;1.81;82.30
76337;BME280;65157;50.082;18.178;2023-04-07T05:37:27;99229.77;;;1.61;82.13
76337;BME280;65157;50.082;18.178;2023-04-07T05:39:54;99259.54;;;1.83;82.03
76337;BME280;65157;50.082;18.178;2023-04-07T05:42:20;99260.56;;;1.87;82.02
76337;BME280;65157;50.082;18.178;2023-04-07T05:44:47;99261.04;;;1.91;82.01
76337;BME280;65157;50.082;18.178;2023-04-07T05:47:14;99260.34;;;1.94;82.06
76337;BME280;65157;50.082;18.178;2023-04-07T05:49:40;99261.52;;;1.95;82.07
76337;BME280;65157;50.082;18.178;2023-04-07T05:52:07;99247.19;;;1.83;82.05
76337;BME280;65157;50.082;18.178;2023-04-07T05:54:34;99268.69;;;1.92;82.08
76337;BME280;65157;50.082;18.178;2023-04-07T05:57:01;99267.13;;;1.92;82.08
76337;BME280;65157;50.082;18.178;2023-04-07T05:59:27;99264.51;;;1.93;81.96
76337;BME280;65157;50.082;18.178;2023-04-07T06:01:54;99257.91;;;1.90;81.83
76337;BME280;65157;50.082;18.178;2023-04-07T06:04:21;99264.30;;;1.97;82.06
76337;BME280;65157;50.082;18.178;2023-04-07T06:06:47;99263.08;;;1.98;81.76
76337;BME280;65157;50.082;18.178;2023-04-07T06:09:14;99265.68;;;1.99;81.92
76337;BME280;65157;50.082;18.178;2023-04-07T06:11:44;99264.62;;;2.02;81.76
76337;BME280;65157;50.082;18.178;2023-04-07T06:14:11;99262.31;;;2.06;81.71
76337;BME280;65157;50.082;18.178;2023-04-07T06:16:38;99262.64;;;2.10;82.04
76337;BME280;65157;50.082;18.178;2023-04-07T06:19:06;99259.81;;;2.12;81.74
76337;BME280;65157;50.082;18.178;2023-04-07T06:21:33;99253.20;;;2.13;81.76
76337;BME280;65157;50.082;18.178;2023-04-07T06:24:00;99241.17;;;2.15;81.72
76337;BME280;65157;50.082;18.178;2023-04-07T06:26:26;99244.11;;;2.18;81.75
76337;BME280;65157;50.082;18.178;2023-04-07T06:28:53;99242.88;;;2.21;81.83
76337;BME280;65157;50.082;18.178;2023-04-07T06:31:20;99241.45;;;2.23;81.63
76337;BME280;65157;50.082;18.178;2023-04-07T06:33:46;99239.35;;;2.24;81.75
76337;BME280;65157;50.082;18.178;2023-04-07T06:36:16;99244.39;;;2.26;81.57
76337;BME280;65157;50.082;18.178;2023-04-07T06:38:43;99238.45;;;2.28;81.58
76337;BME280;65157;50.082;18.178;2023-04-07T06:41:13;99242.61;;;2.29;81.45
76337;BME280;65157;50.082;18.178;2023-04-07T06:43:39;99245.40;;;2.29;81.43
76337;BME280;65157;50.082;18.178;2023-04-07T06:46:06;99247.14;;;2.30;81.55
76337;BME280;65157;50.082;18.178;2023-04-07T06:48:33;99248.35;;;2.32;81.40
76337;BME280;65157;50.082;18.178;2023-04-07T06:51:00;99240.00;;;2.30;81.32
76337;BME280;65157;50.082;18.178;2023-04-07T06:53:30;99248.83;;;2.37;81.37
76337;BME280;65157;50.082;18.178;2023-04-07T06:58:40;99248.27;;;2.39;81.28
76337;BME280;65157;50.082;18.178;2023-04-07T07:01:10;99250.02;;;2.38;81.12
76337;BME280;65157;50.082;18.178;2023-04-07T07:03:43;99247.25;;;2.38;81.26
76337;BME280;65157;50.082;18.178;2023-04-07T07:06:13;99246.36;;;2.38;81.29
76337;BME280;65157;50.082;18.178;2023-04-07T07:08:40;99248.62;;;2.40;81.52
76337;BME280;65157;50.082;18.178;2023-04-07T07:11:07;99245.81;;;2.41;81.35
76337;BME280;65157;50.082;18.178;2023-04-07T07:13:34;99238.20;;;2.37;81.13
76337;BME280;65157;50.082;18.178;2023-04-07T07:16:10;99249.46;;;2.42;81.22
76337;BME280;65157;50.082;18.178;2023-04-07T07:18:45;99248.59;;;2.43;81.25
76337;BME280;65157;50.082;18.178;2023-04-07T07:21:18;99250.11;;;2.47;81.20
76337;BME280;65157;50.082;18.178;2023-04-07T07:23:47;99255.45;;;2.53;81.18
76337;BME280;65157;50.082;18.178;2023-04-07T07:26:17;99254.54;;;2.58;81.23
76337;BME280;65157;50.082;18.178;2023-04-07T07:28:44;99253.98;;;2.60;81.28
76337;BME280;65157;50.082;18.178;2023-04-07T07:31:11;99250.30;;;2.62;80.98
76337;BME280;65157;50.082;18.178;2023-04-07T07:33:40;99223.27;;;2.47;80.88
76337;BME280;65157;50.082;18.178;2023-04-07T07:36:13;99250.06;;;2.69;81.39
76337;BME280;65157;50.082;18.178;2023-04-07T07:38:40;99248.63;;;2.73;81.43
76337;BME280;65157;50.082;18.178;2023-04-07T07:41:07;99255.70;;;2.79;81.23
76337;BME280;65157;50.082;18.178;2023-04-07T07:43:34;99256.19;;;2.83;81.21
76337;BME280;65157;50.082;18.178;2023-04-07T07:46:00;99262.44;;;2.84;81.29
76337;BME280;65157;50.082;18.178;2023-04-07T07:48:27;99266.59;;;2.88;81.18
76337;BME280;65157;50.082;18.178;2023-04-07T07:50:55;99269.16;;;2.91;81.12
76337;BME280;65157;50.082;18.178;2023-04-07T07:53:22;99270.36;;;2.94;81.44
76337;BME280;65157;50.082;18.178;2023-04-07T07:55:49;99272.78;;;2.95;81.24
76337;BME280;65157;50.082;18.178;2023-04-07T07:58:21;99272.06;;;2.98;81.16
76337;BME280;65157;50.082;18.178;2023-04-07T08:00:48;99265.98;;;2.96;81.31
76337;BME280;65157;50.082;18.178;2023-04-07T08:03:17;99273.06;;;3.01;81.24
76337;BME280;65157;50.082;18.178;2023-04-07T08:05:47;99281.89;;;3.05;81.14
76337;BME280;65157;50.082;18.178;2023-04-07T08:08:17;99281.14;;;3.10;80.90
76337;BME280;65157;50.082;18.178;2023-04-07T08:10:45;99285.80;;;3.14;80.75
76337;BME280;65157;50.082;18.178;2023-04-07T08:13:13;99281.94;;;3.17;80.66
76337;BME280;65157;50.082;18.178;2023-04-07T08:15:40;99276.98;;;3.23;80.86
76337;BME280;65157;50.082;18.178;2023-04-07T08:18:07;99279.90;;;3.25;80.88
76337;BME280;65157;50.082;18.178;2023-04-07T08:20:36;99283.74;;;3.26;80.72
76337;BME280;65157;50.082;18.178;2023-04-07T08:23:06;99283.39;;;3.27;80.73
76337;BME280;65157;50.082;18.178;2023-04-07T08:25:33;99283.15;;;3.31;80.34
76337;BME280;65157;50.082;18.178;2023-04-07T08:28:00;99259.05;;;3.20;80.25
76337;BME280;65157;50.082;18.178;2023-04-07T08:30:28;99272.50;;;3.32;80.34
76337;BME280;65157;50.082;18.178;2023-04-07T08:32:55;99282.87;;;3.40;80.26
76337;BME280;65157;50.082;18.178;2023-04-07T08:35:25;99284.39;;;3.44;80.43
76337;BME280;65157;50.082;18.178;2023-04-07T08:37:54;99284.86;;;3.48;80.48
76337;BME280;65157;50.082;18.178;2023-04-07T08:40:21;99284.01;;;3.46;80.40
76337;BME280;65157;50.082;18.178;2023-04-07T08:42:49;99252.63;;;3.31;80.02
76337;BME280;65157;50.082;18.178;2023-04-07T08:45:19;99279.60;;;3.49;80.01
76337;BME280;65157;50.082;18.178;2023-04-07T08:47:48;99287.27;;;3.51;79.83
76337;BME280;65157;50.082;18.178;2023-04-07T08:50:18;99282.79;;;3.46;79.78
76337;BME280;65157;50.082;18.178;2023-04-07T08:52:46;99281.73;;;3.47;79.75
76337;BME280;65157;50.082;18.178;2023-04-07T08:55:21;99282.77;;;3.48;79.81
76337;BME280;65157;50.082;18.178;2023-04-07T08:57:48;99282.08;;;3.48;79.77
76337;BME280;65157;50.082;18.178;2023-04-07T09:00:16;99281.39;;;3.47;79.79
76337;BME280;65157;50.082;18.178;2023-04-07T09:02:43;99280.34;;;3.47;79.91
76337;BME280;65157;50.082;18.178;2023-04-07T09:05:11;99275.09;;;3.48;79.99
76337;BME280;65157;50.082;18.178;2023-04-07T09:07:41;99274.05;;;3.47;79.94
76337;BME280;65157;50.082;18.178;2023-04-07T09:10:08;99271.44;;;3.47;79.80
76337;BME280;65157;50.082;18.178;2023-04-07T09:12:35;99276.66;;;3.46;79.91
76337;BME280;65157;50.082;18.178;2023-04-07T09:15:04;99273.91;;;3.45;79.81
76337;BME280;65157;50.082;18.178;2023-04-07T09:17:31;99273.38;;;3.46;79.79
76337;BME280;65157;50.082;18.178;2023-04-07T09:20:01;99274.17;;;3.51;79.82
76337;BME280;65157;50.082;18.178;2023-04-07T09:22:42;99275.15;;;3.55;79.46
76337;BME280;65157;50.082;18.178;2023-04-07T09:28:04;99236.85;;;3.50;79.67
76337;BME280;65157;50.082;18.178;2023-04-07T09:30:32;99246.19;;;3.56;79.99
76337;BME280;65157;50.082;18.178;2023-04-07T09:33:00;99235.86;;;3.58;80.32
76337;BME280;65157;50.082;18.178;2023-04-07T09:35:29;99220.56;;;3.65;80.46
76337;BME280;65157;50.082;18.178;2023-04-07T09:38:09;99220.73;;;3.66;80.77
76337;BME280;65157;50.082;18.178;2023-04-07T09:40:36;99236.31;;;3.63;80.30
76337;BME280;65157;50.082;18.178;2023-04-07T09:43:04;99245.41;;;3.62;80.23
76337;BME280;65157;50.082;18.178;2023-04-07T09:45:32;99247.85;;;3.62;80.39
76337;BME280;65157;50.082;18.178;2023-04-07T09:48:07;99253.30;;;3.58;80.32
76337;BME280;65157;50.082;18.178;2023-04-07T09:50:39;99252.23;;;3.61;80.48
76337;BME280;65157;50.082;18.178;2023-04-07T09:53:06;99258.64;;;3.75;80.38
76337;BME280;65157;50.082;18.178;2023-04-07T09:55:38;99257.85;;;3.81;80.12
76337;BME280;65157;50.082;18.178;2023-04-07T09:58:06;99238.33;;;3.68;80.02
76337;BME280;65157;50.082;18.178;2023-04-07T10:00:34;99263.94;;;3.71;79.80
76337;BME280;65157;50.082;18.178;2023-04-07T10:03:02;99257.73;;;3.66;80.05
76337;BME280;65157;50.082;18.178;2023-04-07T10:05:30;99263.64;;;3.67;79.88
76337;BME280;65157;50.082;18.178;2023-04-07T10:08:00;99261.91;;;3.67;80.13
76337;BME280;65157;50.082;18.178;2023-04-07T10:10:29;99250.27;;;3.64;80.06
76337;BME280;65157;50.082;18.178;2023-04-07T10:12:56;99235.52;;;3.58;80.03
76337;BME280;65157;50.082;18.178;2023-04-07T10:15:23;99248.81;;;3.67;79.95
76337;BME280;65157;50.082;18.178;2023-04-07T10:17:51;99252.42;;;3.71;80.22
76337;BME280;65157;50.082;18.178;2023-04-07T10:20:19;99251.58;;;3.81;80.36
76337;BME280;65157;50.082;18.178;2023-04-07T10:22:51;99247.91;;;3.92;80.29
76337;BME280;65157;50.082;18.178;2023-04-07T10:25:23;99249.88;;;4.01;80.14
76337;BME280;65157;50.082;18.178;2023-04-07T10:27:59;99252.30;;;4.01;79.46
76337;BME280;65157;50.082;18.178;2023-04-07T10:30:31;99256.58;;;4.07;79.83
76337;BME280;65157;50.082;18.178;2023-04-07T10:32:59;99252.67;;;4.11;79.53
76337;BME280;65157;50.082;18.178;2023-04-07T10:35:27;99237.90;;;4.07;79.50
76337;BME280;65157;50.082;18.178;2023-04-07T10:40:33;99243.77;;;4.22;79.20
76337;BME280;65157;50.082;18.178;2023-04-07T10:43:05;99240.20;;;4.26;79.46
76337;BME280;65157;50.082;18.178;2023-04-07T10:48:15;99234.68;;;4.11;79.52
76337;BME280;65157;50.082;18.178;2023-04-07T10:50:44;99233.98;;;4.01;79.60
76337;BME280;65157;50.082;18.178;2023-04-07T10:53:15;99241.41;;;3.95;79.84
76337;BME280;65157;50.082;18.178;2023-04-07T10:55:53;99246.52;;;3.91;79.58
76337;BME280;65157;50.082;18.178;2023-04-07T10:58:24;99244.35;;;3.85;79.55
76337;BME280;65157;50.082;18.178;2023-04-07T11:03:34;99219.95;;;3.71;79.82
76337;BME280;65157;50.082;18.178;2023-04-07T11:06:09;99236.95;;;3.78;79.78
76337;BME280;65157;50.082;18.178;2023-04-07T11:08:38;99240.88;;;3.84;79.94
76337;BME280;65157;50.082;18.178;2023-04-07T11:11:07;99232.65;;;3.86;80.16
76337;BME280;65157;50.082;18.178;2023-04-07T11:13:40;99236.23;;;3.90;79.93
76337;BME280;65157;50.082;18.178;2023-04-07T11:16:11;99238.58;;;3.97;80.12
76337;BME280;65157;50.082;18.178;2023-04-07T11:18:39;99235.69;;;4.03;80.07
76337;BME280;65157;50.082;18.178;2023-04-07T11:21:07;99231.27;;;4.06;79.51
76337;BME280;65157;50.082;18.178;2023-04-07T11:23:38;99220.34;;;4.03;79.48
76337;BME280;65157;50.082;18.178;2023-04-07T11:26:06;99229.33;;;4.08;79.42
76337;BME280;65157;50.082;18.178;2023-04-07T11:28:33;99233.43;;;4.13;79.55
76337;BME280;65157;50.082;18.178;2023-04-07T11:31:00;99235.00;;;4.14;79.52
76337;BME280;65157;50.082;18.178;2023-04-07T11:33:28;99225.92;;;4.12;79.34
76337;BME280;65157;50.082;18.178;2023-04-07T11:36:00;99236.72;;;4.25;79.42
76337;BME280;65157;50.082;18.178;2023-04-07T11:38:33;99239.45;;;4.29;79.29
76337;BME280;65157;50.082;18.178;2023-04-07T11:41:14;99241.81;;;4.33;79.15
76337;BME280;65157;50.082;18.178;2023-04-07T11:43:41;99239.30;;;4.37;79.04
76337;BME280;65157;50.082;18.178;2023-04-07T11:46:13;99239.48;;;4.36;78.86
76337;BME280;65157;50.082;18.178;2023-04-07T11:48:44;99240.37;;;4.36;78.87
76337;BME280;65157;50.082;18.178;2023-04-07T11:51:21;99243.05;;;4.33;78.77
76337;BME280;65157;50.082;18.178;2023-04-07T11:54:14;99241.03;;;4.28;78.78
76337;BME280;65157;50.082;18.178;2023-04-07T11:56:45;99238.55;;;4.20;78.63
76337;BME280;65157;50.082;18.178;2023-04-07T11:59:23;99239.30;;;4.17;78.72
76337;BME280;65157;50.082;18.178;2023-04-07T12:01:51;99238.60;;;4.17;78.85
76337;BME280;65157;50.082;18.178;2023-04-07T12:04:18;99235.37;;;4.23;78.81
76337;BME280;65157;50.082;18.178;2023-04-07T12:06:50;99231.32;;;4.24;78.82
76337;BME280;65157;50.082;18.178;2023-04-07T12:09:31;99236.11;;;4.30;78.68
76337;BME280;65157;50.082;18.178;2023-04-07T12:11:58;99226.48;;;4.21;78.72
76337;BME280;65157;50.082;18.178;2023-04-07T12:14:25;99231.73;;;4.30;78.66
76337;BME280;65157;50.082;18.178;2023-04-07T12:16:53;99219.22;;;4.27;78.37
76337;BME280;65157;50.082;18.178;2023-04-07T12:19:27;99217.60;;;4.29;78.49
76337;BME280;65157;50.082;18.178;2023-04-07T12:21:55;99227.45;;;4.36;78.83
76337;BME280;65157;50.082;18.178;2023-04-07T12:24:22;99215.69;;;4.29;78.37
76337;BME280;65157;50.082;18.178;2023-04-07T12:26:49;99228.65;;;4.37;78.57
76337;BME280;65157;50.082;18.178;2023-04-07T12:29:18;99231.39;;;4.40;78.81
76337;BME280;65157;50.082;18.178;2023-04-07T12:31:47;99233.63;;;4.41;78.75
76337;BME280;65157;50.082;18.178;2023-04-07T12:34:15;99230.66;;;4.42;78.76
76337;BME280;65157;50.082;18.178;2023-04-07T12:36:42;99234.14;;;4.42;78.61
76337;BME280;65157;50.082;18.178;2023-04-07T12:39:09;99233.50;;;4.40;78.80
76337;BME280;65157;50.082;18.178;2023-04-07T12:41:37;99234.55;;;4.39;78.99
76337;BME280;65157;50.082;18.178;2023-04-07T12:44:04;99231.09;;;4.37;79.24
76337;BME280;65157;50.082;18.178;2023-04-07T12:46:31;99231.91;;;4.31;79.03
76337;BME280;65157;50.082;18.178;2023-04-07T12:48:58;99232.52;;;4.26;79.13
76337;BME280;65157;50.082;18.178;2023-04-07T12:51:26;99230.50;;;4.21;79.47
76337;BME280;65157;50.082;18.178;2023-04-07T12:53:53;99231.40;;;4.19;79.68
76337;BME280;65157;50.082;18.178;2023-04-07T12:56:20;99232.80;;;4.19;79.89
76337;BME280;65157;50.082;18.178;2023-04-07T12:58:50;99229.14;;;4.19;80.14
76337;BME280;65157;50.082;18.178;2023-04-07T13:01:16;99222.19;;;4.17;80.17
76337;BME280;65157;50.082;18.178;2023-04-07T13:03:43;99224.15;;;4.25;80.02
76337;BME280;65157;50.082;18.178;2023-04-07T13:06:10;99221.47;;;4.28;79.94
76337;BME280;65157;50.082;18.178;2023-04-07T13:08:38;99224.20;;;4.32;79.79
76337;BME280;65157;50.082;18.178;2023-04-07T13:11:05;99223.98;;;4.34;79.67
76337;BME280;65157;50.082;18.178;2023-04-07T13:13:32;99222.03;;;4.35;79.60
76337;BME280;65157;50.082;18.178;2023-04-07T13:16:01;99218.35;;;4.36;79.98
76337;BME280;65157;50.082;18.178;2023-04-07T13:18:28;99218.58;;;4.33;79.86
76337;BME280;65157;50.082;18.178;2023-04-07T13:20:55;99213.20;;;4.32;80.09
76337;BME280;65157;50.082;18.178;2023-04-07T13:23:22;99216.73;;;4.29;80.15
76337;BME280;65157;50.082;18.178;2023-04-07T13:25:48;99215.52;;;4.28;80.38
76337;BME280;65157;50.082;18.178;2023-04-07T13:28:15;99215.03;;;4.26;80.29
76337;BME280;65157;50.082;18.178;2023-04-07T13:30:42;99219.30;;;4.21;80.22